sensor_id;sensor_type;location;lat;lon;timestamp;pressure;altitude;pressure_sealevel;temperature;humidity
61524;BME280;47393;38.758;-9.164;2022-12-07T00:00:22;100353.75;;;10.67;100.00
61524;BME280;47393;38.758;-9.164;2022-12-07T00:02:30;100354.81;;;10.64;100.00
61524;BME280;47393;38.758;-9.164;2022-12-07T00:04:37;100342.66;;;10.63;100.00
61524;BME280;47393;38.758;-9.164;2022-12-07T00:06:45;100341.41;;;10.67;100.00
61524;BME280;47393;38.758;-9.164;2022-12-07T00:08:46;100343.09;;;10.68;100.00
61524;BME280;47393;38.758;-9.164;2022-12-07T00:10:54;100333.03;;;10.73;100.00
61524;BME280;47393;38.758;-9.164;2022-12-07T00:13:02;100330.63;;;10.82;100.00
61524;BME280;47393;38.758;-9.164;2022-12-07T00:15:03;100324.00;;;10.87;100.00
61524;BME280;47393;38.758;-9.164;2022-12-07T00:17:10;100324.56;;;10.91;100.00
61524;BME280;47393;38.758;-9.164;2022-12-07T00:19:17;100324.03;;;10.97;100.00
61524;BME280;47393;38.758;-9.164;2022-12-07T00:21:19;100322.41;;;10.96;100.00
61524;BME280;47393;38.758;-9.164;2022-12-07T00:23:26;100331.13;;;10.97;100.00
61524;BME280;47393;38.758;-9.164;2022-12-07T00:25:27;100310.75;;;10.99;100.00
61524;BME280;47393;38.758;-9.164;2022-12-07T00:27:34;100315.41;;;11.06;100.00
61524;BME280;47393;38.758;-9.164;2022-12-07T00:29:42;100306.72;;;11.16;100.00
61524;BME280;47393;38.758;-9.164;2022-12-07T00:31:43;100311.97;;;11.16;100.00
61524;BME280;47393;38.758;-9.164;2022-12-07T00:33:51;100300.75;;;11.14;100.00
61524;BME280;47393;38.758;-9.164;2022-12-07T00:35:58;100300.94;;;11.22;100.00
61524;BME280;47393;38.758;-9.164;2022-12-07T00:38:05;100300.69;;;11.25;100.00
61524;BME280;47393;38.758;-9.164;2022-12-07T00:40:06;100293.34;;;11.29;100.00
61524;BME280;47393;38.758;-9.164;2022-12-07T00:42:13;100287.09;;;11.30;100.00
61524;BME280;47393;38.758;-9.164;2022-12-07T00:44:20;100289.06;;;11.37;100.00
61524;BME280;47393;38.758;-9.164;2022-12-07T00:46:21;100285.06;;;11.43;100.00
61524;BME280;47393;38.758;-9.164;2022-12-07T00:48:29;100285.22;;;11.41;100.00
61524;BME280;47393;38.758;-9.164;2022-12-07T00:50:36;100279.94;;;11.41;100.00
61524;BME280;47393;38.758;-9.164;2022-12-07T00:52:43;100283.81;;;11.37;100.00
61524;BME280;47393;38.758;-9.164;2022-12-07T00:54:50;100272.31;;;11.38;100.00
61524;BME280;47393;38.758;-9.164;2022-12-07T00:56:57;100275.41;;;11.43;100.00
61524;BME280;47393;38.758;-9.164;2022-12-07T00:59:04;100273.84;;;11.41;100.00
61524;BME280;47393;38.758;-9.164;2022-12-07T01:01:06;100281.03;;;11.39;100.00
61524;BME280;47393;38.758;-9.164;2022-12-07T01:03:14;100275.13;;;11.47;100.00
61524;BME280;47393;38.758;-9.164;2022-12-07T01:05:15;100271.78;;;11.45;100.00
61524;BME280;47393;38.758;-9.164;2022-12-07T01:07:22;100273.31;;;11.47;100.00
61524;BME280;47393;38.758;-9.164;2022-12-07T01:09:23;100276.91;;;11.46;100.00
61524;BME280;47393;38.758;-9.164;2022-12-07T01:11:30;100273.84;;;11.41;100.00
61524;BME280;47393;38.758;-9.164;2022-12-07T01:13:37;100274.69;;;11.41;100.00
61524;BME280;47393;38.758;-9.164;2022-12-07T01:15:39;100263.28;;;11.31;100.00
61524;BME280;47393;38.758;-9.164;2022-12-07T01:17:46;100273.53;;;11.34;100.00
61524;BME280;47393;38.758;-9.164;2022-12-07T01:19:47;100262.50;;;11.40;100.00
61524;BME280;47393;38.758;-9.164;2022-12-07T01:21:54;100269.69;;;11.38;100.00
61524;BME280;47393;38.758;-9.164;2022-12-07T01:24:02;100262.19;;;11.34;100.00
61524;BME280;47393;38.758;-9.164;2022-12-07T01:26:04;100263.47;;;11.39;100.00
61524;BME280;47393;38.758;-9.164;2022-12-07T01:28:11;100256.09;;;11.43;100.00
61524;BME280;47393;38.758;-9.164;2022-12-07T01:30:18;100251.97;;;11.40;100.00
61524;BME280;47393;38.758;-9.164;2022-12-07T01:32:19;100254.47;;;11.42;100.00
61524;BME280;47393;38.758;-9.164;2022-12-07T01:34:27;100253.34;;;11.45;100.00
61524;BME280;47393;38.758;-9.164;2022-12-07T01:36:38;100254.31;;;11.43;100.00
61524;BME280;47393;38.758;-9.164;2022-12-07T01:38:47;100255.16;;;11.44;100.00
61524;BME280;47393;38.758;-9.164;2022-12-07T01:40:53;100247.38;;;11.42;100.00
61524;BME280;47393;38.758;-9.164;2022-12-07T01:43:00;100244.88;;;11.41;100.00
61524;BME280;47393;38.758;-9.164;2022-12-07T01:47:35;100233.53;;;11.40;100.00
61524;BME280;47393;38.758;-9.164;2022-12-07T01:49:44;100228.94;;;11.42;100.00
61524;BME280;47393;38.758;-9.164;2022-12-07T01:51:54;100232.84;;;11.48;100.00
61524;BME280;47393;38.758;-9.164;2022-12-07T01:54:02;100227.44;;;11.50;100.00
61524;BME280;47393;38.758;-9.164;2022-12-07T01:56:14;100227.00;;;11.45;100.00
61524;BME280;47393;38.758;-9.164;2022-12-07T01:58:23;100220.09;;;11.43;100.00
61524;BME280;47393;38.758;-9.164;2022-12-07T02:00:30;100215.09;;;11.40;100.00
61524;BME280;47393;38.758;-9.164;2022-12-07T02:02:33;100216.19;;;11.38;100.00
61524;BME280;47393;38.758;-9.164;2022-12-07T02:04:43;100214.91;;;11.32;100.00
61524;BME280;47393;38.758;-9.164;2022-12-07T02:06:50;100208.28;;;11.38;100.00
61524;BME280;47393;38.758;-9.164;2022-12-07T02:08:51;100210.34;;;11.34;100.00
61524;BME280;47393;38.758;-9.164;2022-12-07T02:11:02;100204.22;;;11.24;100.00
61524;BME280;47393;38.758;-9.164;2022-12-07T02:13:14;100199.94;;;11.33;100.00
61524;BME280;47393;38.758;-9.164;2022-12-07T02:15:23;100194.00;;;11.31;100.00
61524;BME280;47393;38.758;-9.164;2022-12-07T02:17:32;100188.41;;;11.24;100.00
61524;BME280;47393;38.758;-9.164;2022-12-07T02:22:02;100154.00;;;11.16;100.00
61524;BME280;47393;38.758;-9.164;2022-12-07T02:26:23;100175.56;;;11.31;100.00
61524;BME280;47393;38.758;-9.164;2022-12-07T02:28:34;100179.00;;;11.31;100.00
61524;BME280;47393;38.758;-9.164;2022-12-07T02:30:44;100179.59;;;11.35;100.00
61524;BME280;47393;38.758;-9.164;2022-12-07T02:32:59;100183.88;;;11.36;100.00
61524;BME280;47393;38.758;-9.164;2022-12-07T02:38:03;100182.09;;;11.36;100.00
61524;BME280;47393;38.758;-9.164;2022-12-07T02:39:46;100174.19;;;11.36;100.00
61524;BME280;47393;38.758;-9.164;2022-12-07T02:41:56;100167.38;;;11.34;100.00
61524;BME280;47393;38.758;-9.164;2022-12-07T02:44:00;100155.63;;;11.38;100.00
61524;BME280;47393;38.758;-9.164;2022-12-07T02:46:10;100152.72;;;11.41;100.00
61524;BME280;47393;38.758;-9.164;2022-12-07T02:48:13;100155.44;;;11.30;100.00
61524;BME280;47393;38.758;-9.164;2022-12-07T02:50:21;100161.69;;;11.38;100.00
61524;BME280;47393;38.758;-9.164;2022-12-07T02:52:28;100156.56;;;11.37;100.00
61524;BME280;47393;38.758;-9.164;2022-12-07T02:54:35;100150.91;;;11.41;100.00
61524;BME280;47393;38.758;-9.164;2022-12-07T03:01:39;100157.41;;;11.28;100.00
61524;BME280;47393;38.758;-9.164;2022-12-07T03:03:50;100159.00;;;11.19;100.00
61524;BME280;47393;38.758;-9.164;2022-12-07T03:06:08;100167.63;;;11.21;100.00
61524;BME280;47393;38.758;-9.164;2022-12-07T03:12:44;100157.91;;;11.21;100.00
61524;BME280;47393;38.758;-9.164;2022-12-07T03:14:52;100161.41;;;11.22;100.00
61524;BME280;47393;38.758;-9.164;2022-12-07T03:17:04;100164.81;;;11.13;100.00
61524;BME280;47393;38.758;-9.164;2022-12-07T03:19:16;100162.63;;;11.18;100.00
61524;BME280;47393;38.758;-9.164;2022-12-07T03:21:19;100173.53;;;11.13;100.00
61524;BME280;47393;38.758;-9.164;2022-12-07T03:23:26;100180.34;;;11.16;100.00
61524;BME280;47393;38.758;-9.164;2022-12-07T03:25:38;100174.56;;;11.22;100.00
61524;BME280;47393;38.758;-9.164;2022-12-07T03:29:59;100173.53;;;11.03;100.00
61524;BME280;47393;38.758;-9.164;2022-12-07T03:33:03;100173.94;;;11.08;100.00
61524;BME280;47393;38.758;-9.164;2022-12-07T03:34:43;100171.72;;;11.04;100.00
61524;BME280;47393;38.758;-9.164;2022-12-07T03:36:54;100163.53;;;11.07;100.00
61524;BME280;47393;38.758;-9.164;2022-12-07T03:39:00;100148.03;;;11.04;100.00
61524;BME280;47393;38.758;-9.164;2022-12-07T03:41:11;100150.22;;;10.99;100.00
61524;BME280;47393;38.758;-9.164;2022-12-07T03:43:12;100142.06;;;11.02;100.00
61524;BME280;47393;38.758;-9.164;2022-12-07T03:45:20;100144.00;;;11.00;100.00
61524;BME280;47393;38.758;-9.164;2022-12-07T03:47:41;100139.03;;;11.06;100.00
61524;BME280;47393;38.758;-9.164;2022-12-07T03:49:46;100137.94;;;11.09;100.00
61524;BME280;47393;38.758;-9.164;2022-12-07T03:52:22;100132.50;;;11.01;100.00
61524;BME280;47393;38.758;-9.164;2022-12-07T03:54:26;100124.03;;;10.97;100.00
61524;BME280;47393;38.758;-9.164;2022-12-07T03:56:36;100125.25;;;10.93;100.00
61524;BME280;47393;38.758;-9.164;2022-12-07T03:58:43;100124.44;;;10.93;100.00
61524;BME280;47393;38.758;-9.164;2022-12-07T04:00:44;100126.50;;;10.89;100.00
61524;BME280;47393;38.758;-9.164;2022-12-07T04:02:52;100120.13;;;10.91;100.00
61524;BME280;47393;38.758;-9.164;2022-12-07T04:04:53;100114.72;;;10.93;100.00
61524;BME280;47393;38.758;-9.164;2022-12-07T04:07:00;100103.41;;;11.02;100.00
61524;BME280;47393;38.758;-9.164;2022-12-07T04:09:07;100104.91;;;10.95;100.00
61524;BME280;47393;38.758;-9.164;2022-12-07T04:11:08;100104.09;;;10.95;100.00
61524;BME280;47393;38.758;-9.164;2022-12-07T04:13:15;100107.97;;;11.00;100.00
61524;BME280;47393;38.758;-9.164;2022-12-07T04:15:16;100105.06;;;10.94;100.00
61524;BME280;47393;38.758;-9.164;2022-12-07T04:17:23;100096.44;;;10.91;100.00
61524;BME280;47393;38.758;-9.164;2022-12-07T04:19:32;100090.75;;;10.86;100.00
61524;BME280;47393;38.758;-9.164;2022-12-07T04:21:36;100090.22;;;10.93;100.00
61524;BME280;47393;38.758;-9.164;2022-12-07T04:23:53;100080.38;;;10.85;100.00
61524;BME280;47393;38.758;-9.164;2022-12-07T04:25:54;100070.94;;;10.82;100.00
61524;BME280;47393;38.758;-9.164;2022-12-07T04:28:01;100068.19;;;10.84;100.00
61524;BME280;47393;38.758;-9.164;2022-12-07T04:30:08;100067.09;;;10.86;100.00
61524;BME280;47393;38.758;-9.164;2022-12-07T04:32:09;100059.47;;;10.83;100.00
61524;BME280;47393;38.758;-9.164;2022-12-07T04:34:17;100068.13;;;10.74;100.00
61524;BME280;47393;38.758;-9.164;2022-12-07T04:36:24;100058.34;;;10.76;100.00
61524;BME280;47393;38.758;-9.164;2022-12-07T04:38:31;100051.41;;;10.75;100.00
61524;BME280;47393;38.758;-9.164;2022-12-07T04:40:35;100054.03;;;10.75;100.00
61524;BME280;47393;38.758;-9.164;2022-12-07T04:42:45;100058.97;;;10.68;100.00
61524;BME280;47393;38.758;-9.164;2022-12-07T04:44:46;100060.06;;;10.66;100.00
61524;BME280;47393;38.758;-9.164;2022-12-07T04:46:53;100071.84;;;10.62;100.00
61524;BME280;47393;38.758;-9.164;2022-12-07T04:48:54;100060.88;;;10.56;100.00
61524;BME280;47393;38.758;-9.164;2022-12-07T04:51:03;100068.63;;;10.58;100.00
61524;BME280;47393;38.758;-9.164;2022-12-07T04:53:04;100057.44;;;10.56;100.00
61524;BME280;47393;38.758;-9.164;2022-12-07T04:55:11;100058.66;;;10.52;100.00
61524;BME280;47393;38.758;-9.164;2022-12-07T04:57:12;100057.94;;;10.50;100.00
61524;BME280;47393;38.758;-9.164;2022-12-07T04:59:19;100072.75;;;10.51;100.00
61524;BME280;47393;38.758;-9.164;2022-12-07T05:01:26;100066.28;;;10.55;100.00
61524;BME280;47393;38.758;-9.164;2022-12-07T05:03:50;100063.47;;;10.47;100.00
61524;BME280;47393;38.758;-9.164;2022-12-07T05:06:05;100072.03;;;10.39;100.00
61524;BME280;47393;38.758;-9.164;2022-12-07T05:08:06;100071.75;;;10.42;100.00
61524;BME280;47393;38.758;-9.164;2022-12-07T05:10:12;100068.72;;;10.47;100.00
61524;BME280;47393;38.758;-9.164;2022-12-07T05:12:19;100067.91;;;10.46;100.00
61524;BME280;47393;38.758;-9.164;2022-12-07T05:14:20;100069.69;;;10.46;100.00
61524;BME280;47393;38.758;-9.164;2022-12-07T05:16:27;100073.56;;;10.42;100.00
61524;BME280;47393;38.758;-9.164;2022-12-07T05:18:28;100066.03;;;10.37;100.00
61524;BME280;47393;38.758;-9.164;2022-12-07T05:20:35;100066.38;;;10.44;100.00
61524;BME280;47393;38.758;-9.164;2022-12-07T05:22:42;100059.28;;;10.44;100.00
61524;BME280;47393;38.758;-9.164;2022-12-07T05:24:43;100060.97;;;10.45;100.00
61524;BME280;47393;38.758;-9.164;2022-12-07T05:26:50;100057.53;;;10.45;100.00
61524;BME280;47393;38.758;-9.164;2022-12-07T05:28:57;100065.41;;;10.45;100.00
61524;BME280;47393;38.758;-9.164;2022-12-07T05:30:58;100069.00;;;10.44;100.00
61524;BME280;47393;38.758;-9.164;2022-12-07T05:33:05;100071.50;;;10.45;100.00
61524;BME280;47393;38.758;-9.164;2022-12-07T05:35:12;100066.41;;;10.32;100.00
61524;BME280;47393;38.758;-9.164;2022-12-07T05:37:13;100063.69;;;10.34;100.00
61524;BME280;47393;38.758;-9.164;2022-12-07T05:39:20;100053.16;;;10.34;100.00
61524;BME280;47393;38.758;-9.164;2022-12-07T05:41:27;100049.75;;;10.22;100.00
61524;BME280;47393;38.758;-9.164;2022-12-07T05:43:53;100046.41;;;10.20;100.00
61524;BME280;47393;38.758;-9.164;2022-12-07T05:45:54;100044.50;;;10.22;100.00
61524;BME280;47393;38.758;-9.164;2022-12-07T05:48:01;100043.16;;;10.28;100.00
61524;BME280;47393;38.758;-9.164;2022-12-07T05:50:08;100046.13;;;10.13;100.00
61524;BME280;47393;38.758;-9.164;2022-12-07T05:52:18;100042.84;;;10.00;100.00
61524;BME280;47393;38.758;-9.164;2022-12-07T05:54:25;100040.59;;;9.95;100.00
61524;BME280;47393;38.758;-9.164;2022-12-07T05:56:26;100040.03;;;9.92;100.00
61524;BME280;47393;38.758;-9.164;2022-12-07T05:58:34;100038.38;;;9.91;100.00
61524;BME280;47393;38.758;-9.164;2022-12-07T06:00:54;100034.06;;;9.90;100.00
61524;BME280;47393;38.758;-9.164;2022-12-07T06:03:01;100039.25;;;9.80;100.00
61524;BME280;47393;38.758;-9.164;2022-12-07T06:05:02;100028.31;;;9.75;100.00
61524;BME280;47393;38.758;-9.164;2022-12-07T06:07:10;100027.16;;;9.67;100.00
61524;BME280;47393;38.758;-9.164;2022-12-07T06:09:11;100013.56;;;9.62;100.00
61524;BME280;47393;38.758;-9.164;2022-12-07T06:11:19;100018.19;;;9.70;100.00
61524;BME280;47393;38.758;-9.164;2022-12-07T06:13:49;100017.09;;;9.73;100.00
61524;BME280;47393;38.758;-9.164;2022-12-07T06:15:52;100025.00;;;9.61;100.00
61524;BME280;47393;38.758;-9.164;2022-12-07T06:17:59;100016.25;;;9.72;100.00
61524;BME280;47393;38.758;-9.164;2022-12-07T06:20:06;100029.25;;;9.74;100.00
61524;BME280;47393;38.758;-9.164;2022-12-07T06:22:13;100028.25;;;9.65;100.00
61524;BME280;47393;38.758;-9.164;2022-12-07T06:24:22;100021.63;;;9.49;100.00
61524;BME280;47393;38.758;-9.164;2022-12-07T06:26:23;100022.47;;;9.50;100.00
61524;BME280;47393;38.758;-9.164;2022-12-07T06:28:30;100013.63;;;9.51;100.00
61524;BME280;47393;38.758;-9.164;2022-12-07T06:30:31;100016.75;;;9.45;100.00
61524;BME280;47393;38.758;-9.164;2022-12-07T06:32:38;100016.09;;;9.31;100.00
61524;BME280;47393;38.758;-9.164;2022-12-07T06:34:39;100014.88;;;9.35;100.00
61524;BME280;47393;38.758;-9.164;2022-12-07T06:36:50;100020.13;;;9.35;100.00
61524;BME280;47393;38.758;-9.164;2022-12-07T06:39:02;100009.38;;;9.39;100.00
61524;BME280;47393;38.758;-9.164;2022-12-07T06:41:02;100015.81;;;9.46;100.00
61524;BME280;47393;38.758;-9.164;2022-12-07T06:43:10;100008.34;;;9.51;100.00
61524;BME280;47393;38.758;-9.164;2022-12-07T06:45:18;100008.09;;;9.54;100.00
61524;BME280;47393;38.758;-9.164;2022-12-07T06:47:19;100005.13;;;9.59;100.00
61524;BME280;47393;38.758;-9.164;2022-12-07T06:49:26;100002.78;;;9.65;100.00
61524;BME280;47393;38.758;-9.164;2022-12-07T06:51:27;100006.72;;;9.71;100.00
61524;BME280;47393;38.758;-9.164;2022-12-07T06:53:36;100002.44;;;9.70;100.00
61524;BME280;47393;38.758;-9.164;2022-12-07T06:55:43;99999.41;;;9.75;100.00
61524;BME280;47393;38.758;-9.164;2022-12-07T06:57:44;100000.03;;;9.88;100.00
61524;BME280;47393;38.758;-9.164;2022-12-07T06:59:51;100003.81;;;9.95;100.00
61524;BME280;47393;38.758;-9.164;2022-12-07T07:01:52;100009.47;;;9.91;100.00
61524;BME280;47393;38.758;-9.164;2022-12-07T07:03:59;100010.63;;;9.98;100.00
61524;BME280;47393;38.758;-9.164;2022-12-07T07:06:00;100007.47;;;10.04;100.00
61524;BME280;47393;38.758;-9.164;2022-12-07T07:08:07;100010.94;;;10.04;100.00
61524;BME280;47393;38.758;-9.164;2022-12-07T07:10:14;100007.47;;;10.04;100.00
61524;BME280;47393;38.758;-9.164;2022-12-07T07:12:21;100001.84;;;10.09;100.00
61524;BME280;47393;38.758;-9.164;2022-12-07T07:14:28;100002.25;;;10.14;100.00
61524;BME280;47393;38.758;-9.164;2022-12-07T07:16:29;100008.38;;;10.24;100.00
61524;BME280;47393;38.758;-9.164;2022-12-07T07:18:37;100012.81;;;10.24;100.00
61524;BME280;47393;38.758;-9.164;2022-12-07T07:20:44;100009.50;;;10.21;100.00
61524;BME280;47393;38.758;-9.164;2022-12-07T07:22:48;100010.19;;;10.24;100.00
61524;BME280;47393;38.758;-9.164;2022-12-07T07:24:55;100006.97;;;10.20;100.00
61524;BME280;47393;38.758;-9.164;2022-12-07T07:27:02;100004.63;;;10.17;100.00
61524;BME280;47393;38.758;-9.164;2022-12-07T07:29:03;100002.25;;;10.14;100.00
61524;BME280;47393;38.758;-9.164;2022-12-07T07:31:10;99994.38;;;10.14;100.00
61524;BME280;47393;38.758;-9.164;2022-12-07T07:33:17;99997.00;;;10.14;100.00
61524;BME280;47393;38.758;-9.164;2022-12-07T07:35:18;99993.84;;;10.20;100.00
61524;BME280;47393;38.758;-9.164;2022-12-07T07:37:25;100005.47;;;10.17;100.00
61524;BME280;47393;38.758;-9.164;2022-12-07T07:39:32;100006.56;;;10.15;100.00
61524;BME280;47393;38.758;-9.164;2022-12-07T07:41:40;100001.56;;;10.12;100.00
61524;BME280;47393;38.758;-9.164;2022-12-07T07:43:58;100012.78;;;10.14;100.00
61524;BME280;47393;38.758;-9.164;2022-12-07T07:46:00;100007.44;;;10.25;100.00
61524;BME280;47393;38.758;-9.164;2022-12-07T07:48:10;99994.91;;;10.08;100.00
61524;BME280;47393;38.758;-9.164;2022-12-07T07:50:11;100000.22;;;10.17;100.00
61524;BME280;47393;38.758;-9.164;2022-12-07T07:52:18;99998.41;;;10.18;100.00
61524;BME280;47393;38.758;-9.164;2022-12-07T07:54:26;99989.56;;;10.19;100.00
61524;BME280;47393;38.758;-9.164;2022-12-07T07:56:34;99992.88;;;10.21;100.00
61524;BME280;47393;38.758;-9.164;2022-12-07T07:58:42;99978.47;;;10.15;100.00
61524;BME280;47393;38.758;-9.164;2022-12-07T08:00:45;99985.59;;;10.25;100.00
61524;BME280;47393;38.758;-9.164;2022-12-07T08:02:56;99994.81;;;10.19;100.00
61524;BME280;47393;38.758;-9.164;2022-12-07T08:05:00;99997.88;;;10.24;100.00
61524;BME280;47393;38.758;-9.164;2022-12-07T08:07:08;100000.00;;;10.30;100.00
61524;BME280;47393;38.758;-9.164;2022-12-07T08:09:21;99999.88;;;10.32;100.00
61524;BME280;47393;38.758;-9.164;2022-12-07T08:11:34;99995.44;;;10.32;100.00
61524;BME280;47393;38.758;-9.164;2022-12-07T08:13:50;99985.31;;;10.28;100.00
61524;BME280;47393;38.758;-9.164;2022-12-07T08:15:58;99973.44;;;10.33;100.00
61524;BME280;47393;38.758;-9.164;2022-12-07T08:18:12;99974.59;;;10.41;100.00
61524;BME280;47393;38.758;-9.164;2022-12-07T08:20:21;99976.56;;;10.27;100.00
61524;BME280;47393;38.758;-9.164;2022-12-07T08:22:22;99986.59;;;10.33;100.00
61524;BME280;47393;38.758;-9.164;2022-12-07T08:24:40;99989.09;;;10.35;100.00
61524;BME280;47393;38.758;-9.164;2022-12-07T08:26:47;99988.25;;;10.34;100.00
61524;BME280;47393;38.758;-9.164;2022-12-07T08:28:57;99981.69;;;10.19;100.00
61524;BME280;47393;38.758;-9.164;2022-12-07T08:31:09;99985.28;;;10.18;100.00
61524;BME280;47393;38.758;-9.164;2022-12-07T08:33:10;99983.31;;;10.20;100.00
61524;BME280;47393;38.758;-9.164;2022-12-07T08:35:20;99998.81;;;10.13;100.00
61524;BME280;47393;38.758;-9.164;2022-12-07T08:37:28;99995.31;;;10.03;100.00
61524;BME280;47393;38.758;-9.164;2022-12-07T08:39:42;99998.88;;;10.02;100.00
61524;BME280;47393;38.758;-9.164;2022-12-07T08:41:45;99994.38;;;10.14;100.00
61524;BME280;47393;38.758;-9.164;2022-12-07T08:43:55;99998.81;;;10.13;100.00
61524;BME280;47393;38.758;-9.164;2022-12-07T08:48:11;99990.53;;;10.18;100.00
61524;BME280;47393;38.758;-9.164;2022-12-07T08:50:20;99986.50;;;10.14;100.00
61524;BME280;47393;38.758;-9.164;2022-12-07T08:52:35;99989.69;;;10.17;100.00
61524;BME280;47393;38.758;-9.164;2022-12-07T08:54:38;99991.47;;;10.17;100.00
61524;BME280;47393;38.758;-9.164;2022-12-07T08:56:45;99981.22;;;10.14;100.00
61524;BME280;47393;38.758;-9.164;2022-12-07T08:58:58;99996.31;;;10.12;100.00
61524;BME280;47393;38.758;-9.164;2022-12-07T09:00:59;99992.97;;;10.10;100.00
61524;BME280;47393;38.758;-9.164;2022-12-07T09:03:10;100000.16;;;10.08;100.00
61524;BME280;47393;38.758;-9.164;2022-12-07T09:05:17;99991.66;;;10.25;100.00
61524;BME280;47393;38.758;-9.164;2022-12-07T09:07:25;99994.09;;;10.17;100.00
61524;BME280;47393;38.758;-9.164;2022-12-07T09:09:26;99995.91;;;10.16;100.00
61524;BME280;47393;38.758;-9.164;2022-12-07T09:11:40;99985.19;;;10.29;100.00
61524;BME280;47393;38.758;-9.164;2022-12-07T09:13:48;99980.19;;;10.26;100.00
61524;BME280;47393;38.758;-9.164;2022-12-07T09:16:04;99983.22;;;10.21;100.00
61524;BME280;47393;38.758;-9.164;2022-12-07T09:18:17;99978.06;;;10.20;100.00
61524;BME280;47393;38.758;-9.164;2022-12-07T09:20:22;99968.25;;;10.43;100.00
61524;BME280;47393;38.758;-9.164;2022-12-07T09:22:33;99972.94;;;10.39;100.00
61524;BME280;47393;38.758;-9.164;2022-12-07T09:24:58;99970.88;;;10.43;100.00
61524;BME280;47393;38.758;-9.164;2022-12-07T09:27:00;99978.50;;;10.46;100.00
61524;BME280;47393;38.758;-9.164;2022-12-07T09:29:11;99972.28;;;10.57;100.00
61524;BME280;47393;38.758;-9.164;2022-12-07T09:31:21;99980.88;;;10.28;100.00
61524;BME280;47393;38.758;-9.164;2022-12-07T09:33:26;99974.16;;;10.35;100.00
61524;BME280;47393;38.758;-9.164;2022-12-07T09:35:55;99970.47;;;10.48;100.00
61524;BME280;47393;38.758;-9.164;2022-12-07T09:38:06;99979.53;;;10.34;100.00
61524;BME280;47393;38.758;-9.164;2022-12-07T09:40:07;99970.16;;;10.41;100.00
61524;BME280;47393;38.758;-9.164;2022-12-07T09:42:37;99972.28;;;10.57;100.00
61524;BME280;47393;38.758;-9.164;2022-12-07T09:44:42;99967.41;;;10.43;100.00
61524;BME280;47393;38.758;-9.164;2022-12-07T09:46:50;99971.44;;;10.47;100.00
61524;BME280;47393;38.758;-9.164;2022-12-07T09:48:53;99969.06;;;10.44;100.00
61524;BME280;47393;38.758;-9.164;2022-12-07T09:51:02;99967.00;;;10.47;100.00
61524;BME280;47393;38.758;-9.164;2022-12-07T09:53:19;99967.16;;;10.55;100.00
61524;BME280;47393;38.758;-9.164;2022-12-07T09:55:39;99982.91;;;10.46;100.00
61524;BME280;47393;38.758;-9.164;2022-12-07T09:57:48;99973.81;;;10.60;100.00
61524;BME280;47393;38.758;-9.164;2022-12-07T09:59:56;99980.47;;;10.64;100.00
61524;BME280;47393;38.758;-9.164;2022-12-07T10:04:29;99979.22;;;10.58;100.00
61524;BME280;47393;38.758;-9.164;2022-12-07T10:06:36;99976.03;;;10.64;100.00
61524;BME280;47393;38.758;-9.164;2022-12-07T10:08:56;99979.66;;;10.63;100.00
61524;BME280;47393;38.758;-9.164;2022-12-07T10:11:03;99975.38;;;10.72;100.00
61524;BME280;47393;38.758;-9.164;2022-12-07T10:13:11;99966.53;;;10.93;100.00
61524;BME280;47393;38.758;-9.164;2022-12-07T10:17:57;99975.97;;;11.24;100.00
61524;BME280;47393;38.758;-9.164;2022-12-07T10:20:18;99982.50;;;11.20;100.00
61524;BME280;47393;38.758;-9.164;2022-12-07T10:22:28;99977.91;;;11.22;100.00
61524;BME280;47393;38.758;-9.164;2022-12-07T10:24:42;99975.56;;;11.29;100.00
61524;BME280;47393;38.758;-9.164;2022-12-07T10:26:51;99966.97;;;11.17;100.00
61524;BME280;47393;38.758;-9.164;2022-12-07T10:28:59;99965.72;;;11.31;100.00
61524;BME280;47393;38.758;-9.164;2022-12-07T10:31:15;99973.91;;;11.28;100.00
61524;BME280;47393;38.758;-9.164;2022-12-07T10:33:27;99964.47;;;11.35;100.00
61524;BME280;47393;38.758;-9.164;2022-12-07T10:35:42;99962.28;;;11.31;100.00
61524;BME280;47393;38.758;-9.164;2022-12-07T10:37:50;99962.69;;;11.06;100.00
61524;BME280;47393;38.758;-9.164;2022-12-07T10:39:57;99968.63;;;11.08;100.00
61524;BME280;47393;38.758;-9.164;2022-12-07T10:42:01;99956.19;;;11.20;100.00
61524;BME280;47393;38.758;-9.164;2022-12-07T10:44:10;99958.81;;;11.01;100.00
61524;BME280;47393;38.758;-9.164;2022-12-07T10:48:50;99954.66;;;11.18;100.00
61524;BME280;47393;38.758;-9.164;2022-12-07T10:51:15;99949.38;;;11.08;100.00
61524;BME280;47393;38.758;-9.164;2022-12-07T11:07:20;99918.84;;;11.54;100.00
61524;BME280;47393;38.758;-9.164;2022-12-07T11:12:04;99925.25;;;11.42;100.00
61524;BME280;47393;38.758;-9.164;2022-12-07T11:27:19;99886.59;;;12.18;100.00
61524;BME280;47393;38.758;-9.164;2022-12-07T11:34:23;99874.91;;;12.02;100.00
61524;BME280;47393;38.758;-9.164;2022-12-07T11:36:40;99863.00;;;12.16;100.00
61524;BME280;47393;38.758;-9.164;2022-12-07T11:41:22;99850.09;;;11.95;100.00
61524;BME280;47393;38.758;-9.164;2022-12-07T11:43:30;99845.97;;;11.83;100.00
61524;BME280;47393;38.758;-9.164;2022-12-07T11:45:41;99841.56;;;11.73;100.00
61524;BME280;47393;38.758;-9.164;2022-12-07T11:48:00;99830.03;;;11.74;100.00
61524;BME280;47393;38.758;-9.164;2022-12-07T11:54:40;99825.69;;;11.55;100.00
61524;BME280;47393;38.758;-9.164;2022-12-07T11:56:50;99818.78;;;11.45;100.00
61524;BME280;47393;38.758;-9.164;2022-12-07T12:03:28;99807.91;;;11.57;100.00
61524;BME280;47393;38.758;-9.164;2022-12-07T12:05:39;99808.47;;;11.61;100.00
61524;BME280;47393;38.758;-9.164;2022-12-07T12:07:58;99776.72;;;11.63;100.00
61524;BME280;47393;38.758;-9.164;2022-12-07T12:10:05;99794.63;;;11.87;100.00
61524;BME280;47393;38.758;-9.164;2022-12-07T12:21:30;99772.31;;;11.81;100.00